sensor_id;sensor_type;location;lat;lon;timestamp;pressure;altitude;pressure_sealevel;temperature;humidity
12868;BME280;33517;49.866;8.320;2023-02-15T00:00:29;102031.03;;;3.52;91.98
12868;BME280;33517;49.866;8.320;2023-02-15T00:03:21;102024.44;;;3.45;91.68
12868;BME280;33517;49.866;8.320;2023-02-15T00:06:13;102019.56;;;3.39;91.86
12868;BME280;33517;49.866;8.320;2023-02-15T00:09:06;102022.78;;;3.44;92.02
12868;BME280;33517;49.866;8.320;2023-02-15T00:11:58;102017.59;;;3.44;91.47
12868;BME280;33517;49.866;8.320;2023-02-15T00:14:50;102016.66;;;3.45;91.46
12868;BME280;33517;49.866;8.320;2023-02-15T00:17:42;102012.88;;;3.50;91.39
12868;BME280;33517;49.866;8.320;2023-02-15T00:20:34;102017.31;;;3.48;91.00
12868;BME280;33517;49.866;8.320;2023-02-15T00:23:26;102016.41;;;3.49;91.72
12868;BME280;33517;49.866;8.320;2023-02-15T00:26:19;102013.63;;;3.52;91.85
12868;BME280;33517;49.866;8.320;2023-02-15T00:29:12;102004.84;;;3.55;91.45
12868;BME280;33517;49.866;8.320;2023-02-15T00:32:05;102002.16;;;3.56;91.47
12868;BME280;33517;49.866;8.320;2023-02-15T00:34:57;102003.75;;;3.59;91.40
12868;BME280;33517;49.866;8.320;2023-02-15T00:37:48;101995.78;;;3.62;91.12
12868;BME280;33517;49.866;8.320;2023-02-15T00:40:40;101991.28;;;3.65;91.68
12868;BME280;33517;49.866;8.320;2023-02-15T00:43:34;101997.97;;;3.69;92.08
12868;BME280;33517;49.866;8.320;2023-02-15T00:46:26;101995.03;;;3.75;91.88
12868;BME280;33517;49.866;8.320;2023-02-15T00:49:18;101991.25;;;3.81;91.70
12868;BME280;33517;49.866;8.320;2023-02-15T00:52:10;101996.72;;;3.77;91.45
12868;BME280;33517;49.866;8.320;2023-02-15T00:55:02;101998.47;;;3.60;91.35
12868;BME280;33517;49.866;8.320;2023-02-15T00:57:54;101991.81;;;3.55;91.35
12868;BME280;33517;49.866;8.320;2023-02-15T01:00:47;102000.63;;;3.52;91.33
12868;BME280;33517;49.866;8.320;2023-02-15T01:03:39;102004.66;;;3.42;91.66
12868;BME280;33517;49.866;8.320;2023-02-15T01:06:32;101991.13;;;3.36;91.87
12868;BME280;33517;49.866;8.320;2023-02-15T01:09:24;101991.69;;;3.41;92.26
12868;BME280;33517;49.866;8.320;2023-02-15T01:12:15;101986.91;;;3.33;91.50
12868;BME280;33517;49.866;8.320;2023-02-15T01:15:08;101983.81;;;3.27;92.22
12868;BME280;33517;49.866;8.320;2023-02-15T01:18:01;101990.31;;;3.18;91.81
12868;BME280;33517;49.866;8.320;2023-02-15T01:20:55;101986.13;;;3.16;92.71
12868;BME280;33517;49.866;8.320;2023-02-15T01:23:47;101988.25;;;3.25;92.64
12868;BME280;33517;49.866;8.320;2023-02-15T01:26:39;101991.19;;;3.34;93.06
12868;BME280;33517;49.866;8.320;2023-02-15T01:29:31;101989.09;;;3.41;93.01
12868;BME280;33517;49.866;8.320;2023-02-15T01:32:23;101976.81;;;3.44;93.01
12868;BME280;33517;49.866;8.320;2023-02-15T01:35:16;101979.31;;;3.46;92.89
12868;BME280;33517;49.866;8.320;2023-02-15T01:38:08;101977.63;;;3.45;92.82
12868;BME280;33517;49.866;8.320;2023-02-15T01:41:00;101985.59;;;3.42;92.60
12868;BME280;33517;49.866;8.320;2023-02-15T01:47:33;101984.16;;;3.36;92.38
12868;BME280;33517;49.866;8.320;2023-02-15T01:50:32;101968.34;;;3.24;92.63
12868;BME280;33517;49.866;8.320;2023-02-15T01:53:28;101973.41;;;3.27;92.98
12868;BME280;33517;49.866;8.320;2023-02-15T01:56:25;101972.38;;;3.29;92.82
12868;BME280;33517;49.866;8.320;2023-02-15T01:59:21;101971.38;;;3.32;92.67
12868;BME280;33517;49.866;8.320;2023-02-15T02:02:16;101967.03;;;3.32;92.64
12868;BME280;33517;49.866;8.320;2023-02-15T02:05:11;101962.06;;;3.28;92.28
12868;BME280;33517;49.866;8.320;2023-02-15T02:08:04;101960.22;;;3.30;92.39
12868;BME280;33517;49.866;8.320;2023-02-15T02:10:58;101961.81;;;3.32;92.68
12868;BME280;33517;49.866;8.320;2023-02-15T02:13:51;101960.22;;;3.30;92.80
12868;BME280;33517;49.866;8.320;2023-02-15T02:16:51;101953.41;;;3.27;92.22
12868;BME280;33517;49.866;8.320;2023-02-15T02:20:04;101958.22;;;3.35;92.26
12868;BME280;33517;49.866;8.320;2023-02-15T02:23:19;101955.69;;;3.33;92.71
12868;BME280;33517;49.866;8.320;2023-02-15T02:26:32;101956.53;;;3.34;92.81
12868;BME280;33517;49.866;8.320;2023-02-15T02:29:43;101948.41;;;3.40;92.54
12868;BME280;33517;49.866;8.320;2023-02-15T02:32:59;101944.88;;;3.41;92.45
12868;BME280;33517;49.866;8.320;2023-02-15T02:35:58;101942.38;;;3.39;92.47
12868;BME280;33517;49.866;8.320;2023-02-15T02:39:06;101947.47;;;3.41;92.00
12868;BME280;33517;49.866;8.320;2023-02-15T02:42:02;101946.34;;;3.46;92.45
12868;BME280;33517;49.866;8.320;2023-02-15T02:45:02;101936.59;;;3.50;92.36
12868;BME280;33517;49.866;8.320;2023-02-15T02:48:01;101942.38;;;3.55;93.02
12868;BME280;33517;49.866;8.320;2023-02-15T02:50:55;101938.03;;;3.55;92.30
12868;BME280;33517;49.866;8.320;2023-02-15T02:53:49;101937.41;;;3.50;92.04
12868;BME280;33517;49.866;8.320;2023-02-15T02:56:43;101937.59;;;3.47;92.54
12868;BME280;33517;49.866;8.320;2023-02-15T02:59:39;101942.88;;;3.46;92.86
12868;BME280;33517;49.866;8.320;2023-02-15T03:02:37;101930.78;;;3.45;92.81
12868;BME280;33517;49.866;8.320;2023-02-15T03:05:36;101928.03;;;3.48;92.40
12868;BME280;33517;49.866;8.320;2023-02-15T03:08:33;101921.22;;;3.45;92.93
12868;BME280;33517;49.866;8.320;2023-02-15T03:11:27;101918.72;;;3.44;92.26
12868;BME280;33517;49.866;8.320;2023-02-15T03:14:19;101921.03;;;3.48;93.06
12868;BME280;33517;49.866;8.320;2023-02-15T03:17:12;101928.47;;;3.56;93.00
12868;BME280;33517;49.866;8.320;2023-02-15T03:20:07;101917.03;;;3.58;92.26
12868;BME280;33517;49.866;8.320;2023-02-15T03:23:04;101913.66;;;3.56;92.73
12868;BME280;33517;49.866;8.320;2023-02-15T03:26:00;101913.00;;;3.53;92.30
12868;BME280;33517;49.866;8.320;2023-02-15T03:28:55;101911.06;;;3.56;92.18
12868;BME280;33517;49.866;8.320;2023-02-15T03:31:51;101907.56;;;3.57;92.15
12868;BME280;33517;49.866;8.320;2023-02-15T03:34:45;101902.50;;;3.54;91.90
12868;BME280;33517;49.866;8.320;2023-02-15T03:37:41;101906.19;;;3.50;92.04
12868;BME280;33517;49.866;8.320;2023-02-15T03:40:37;101902.16;;;3.45;92.66
12868;BME280;33517;49.866;8.320;2023-02-15T03:43:49;101905.03;;;3.40;92.39
12868;BME280;33517;49.866;8.320;2023-02-15T03:46:45;101908.44;;;3.41;92.52
12868;BME280;33517;49.866;8.320;2023-02-15T03:49:42;101901.91;;;3.34;92.30
12868;BME280;33517;49.866;8.320;2023-02-15T03:52:36;101912.63;;;3.28;92.75
12868;BME280;33517;49.866;8.320;2023-02-15T03:55:29;101910.72;;;3.31;92.73
12868;BME280;33517;49.866;8.320;2023-02-15T03:58:22;101900.72;;;3.24;92.77
12868;BME280;33517;49.866;8.320;2023-02-15T04:01:34;101903.41;;;3.22;92.95
12868;BME280;33517;49.866;8.320;2023-02-15T04:04:47;101899.59;;;3.12;93.09
12868;BME280;33517;49.866;8.320;2023-02-15T04:07:39;101902.69;;;3.03;93.30
12868;BME280;33517;49.866;8.320;2023-02-15T04:10:31;101899.19;;;3.04;93.50
12868;BME280;33517;49.866;8.320;2023-02-15T04:13:41;101901.44;;;3.10;93.26
12868;BME280;33517;49.866;8.320;2023-02-15T04:16:33;101905.97;;;3.07;93.28
12868;BME280;33517;49.866;8.320;2023-02-15T04:19:24;101910.34;;;3.06;93.44
12868;BME280;33517;49.866;8.320;2023-02-15T04:22:34;101912.69;;;3.11;93.48
12868;BME280;33517;49.866;8.320;2023-02-15T04:25:43;101900.97;;;3.19;93.62
12868;BME280;33517;49.866;8.320;2023-02-15T04:28:35;101901.38;;;3.12;93.76
12868;BME280;33517;49.866;8.320;2023-02-15T04:31:28;101903.06;;;3.13;93.75
12868;BME280;33517;49.866;8.320;2023-02-15T04:34:20;101900.44;;;3.13;93.35
12868;BME280;33517;49.866;8.320;2023-02-15T04:37:12;101905.56;;;3.14;93.91
12868;BME280;33517;49.866;8.320;2023-02-15T04:40:05;101907.25;;;3.15;93.75
12868;BME280;33517;49.866;8.320;2023-02-15T04:42:58;101905.97;;;3.07;93.93
12868;BME280;33517;49.866;8.320;2023-02-15T04:45:50;101907.56;;;3.09;94.33
12868;BME280;33517;49.866;8.320;2023-02-15T04:48:44;101901.28;;;3.13;94.27
12868;BME280;33517;49.866;8.320;2023-02-15T04:51:36;101907.16;;;3.17;93.43
12868;BME280;33517;49.866;8.320;2023-02-15T04:54:27;101907.31;;;2.98;94.50
12868;BME280;33517;49.866;8.320;2023-02-15T04:57:19;101893.56;;;2.96;94.42
12868;BME280;33517;49.866;8.320;2023-02-15T05:00:12;101894.00;;;3.04;94.24
12868;BME280;33517;49.866;8.320;2023-02-15T05:03:03;101895.84;;;3.02;94.69
12868;BME280;33517;49.866;8.320;2023-02-15T05:05:57;101898.66;;;2.98;94.45
12868;BME280;33517;49.866;8.320;2023-02-15T05:08:48;101892.97;;;3.07;94.49
12868;BME280;33517;49.866;8.320;2023-02-15T05:11:41;101894.50;;;3.11;94.29
12868;BME280;33517;49.866;8.320;2023-02-15T05:14:33;101892.50;;;3.16;94.56
12868;BME280;33517;49.866;8.320;2023-02-15T05:17:24;101895.13;;;2.83;94.39
12868;BME280;33517;49.866;8.320;2023-02-15T05:20:17;101892.09;;;2.58;95.37
12868;BME280;33517;49.866;8.320;2023-02-15T05:23:10;101893.28;;;2.68;96.60
12868;BME280;33517;49.866;8.320;2023-02-15T05:26:02;101884.72;;;2.83;95.70
12868;BME280;33517;49.866;8.320;2023-02-15T05:29:12;101877.19;;;2.94;95.15
12868;BME280;33517;49.866;8.320;2023-02-15T05:32:04;101880.28;;;3.01;95.63
12868;BME280;33517;49.866;8.320;2023-02-15T05:34:56;101879.84;;;2.77;95.70
12868;BME280;33517;49.866;8.320;2023-02-15T05:37:47;101882.28;;;2.63;96.31
12868;BME280;33517;49.866;8.320;2023-02-15T05:40:41;101882.59;;;2.57;96.93
12868;BME280;33517;49.866;8.320;2023-02-15T05:43:33;101882.38;;;2.61;96.72
12868;BME280;33517;49.866;8.320;2023-02-15T05:46:25;101875.66;;;2.57;97.63
12868;BME280;33517;49.866;8.320;2023-02-15T05:49:17;101880.50;;;2.80;97.31
12868;BME280;33517;49.866;8.320;2023-02-15T05:52:08;101881.63;;;2.92;96.13
12868;BME280;33517;49.866;8.320;2023-02-15T05:55:02;101881.63;;;2.92;96.32
12868;BME280;33517;49.866;8.320;2023-02-15T05:57:56;101885.53;;;2.83;95.39
12868;BME280;33517;49.866;8.320;2023-02-15T06:00:48;101891.94;;;2.44;96.31
12868;BME280;33517;49.866;8.320;2023-02-15T06:03:40;101895.09;;;2.33;97.19
12868;BME280;33517;49.866;8.320;2023-02-15T06:06:32;101892.22;;;2.55;97.23
12868;BME280;33517;49.866;8.320;2023-02-15T06:09:25;101893.63;;;2.77;97.00
12868;BME280;33517;49.866;8.320;2023-02-15T06:12:16;101896.00;;;2.82;96.09
12868;BME280;33517;49.866;8.320;2023-02-15T06:15:10;101892.13;;;2.91;96.15
12868;BME280;33517;49.866;8.320;2023-02-15T06:18:02;101899.66;;;2.95;95.66
12868;BME280;33517;49.866;8.320;2023-02-15T06:20:54;101900.28;;;3.00;94.84
12868;BME280;33517;49.866;8.320;2023-02-15T06:23:46;101903.47;;;3.05;94.98
12868;BME280;33517;49.866;8.320;2023-02-15T06:26:37;101907.91;;;3.03;94.61
12868;BME280;33517;49.866;8.320;2023-02-15T06:29:29;101908.84;;;3.02;94.52
12868;BME280;33517;49.866;8.320;2023-02-15T06:32:24;101910.09;;;2.78;94.49
12868;BME280;33517;49.866;8.320;2023-02-15T06:35:16;101916.69;;;2.51;94.64
12868;BME280;33517;49.866;8.320;2023-02-15T06:38:08;101920.97;;;2.52;95.49
12868;BME280;33517;49.866;8.320;2023-02-15T06:40:59;101921.88;;;2.51;95.85
12868;BME280;33517;49.866;8.320;2023-02-15T06:43:51;101922.03;;;2.48;96.57
12868;BME280;33517;49.866;8.320;2023-02-15T06:46:43;101923.28;;;2.41;97.11
12868;BME280;33517;49.866;8.320;2023-02-15T06:49:36;101928.09;;;2.48;96.97
12868;BME280;33517;49.866;8.320;2023-02-15T06:52:29;101922.59;;;2.37;96.92
12868;BME280;33517;49.866;8.320;2023-02-15T06:55:21;101930.28;;;2.22;97.62
12868;BME280;33517;49.866;8.320;2023-02-15T06:58:12;101925.41;;;2.33;98.49
12868;BME280;33517;49.866;8.320;2023-02-15T07:01:05;101930.13;;;2.59;98.26
12868;BME280;33517;49.866;8.320;2023-02-15T07:03:57;101921.84;;;2.68;97.11
12868;BME280;33517;49.866;8.320;2023-02-15T07:06:50;101925.88;;;2.58;97.19
12868;BME280;33517;49.866;8.320;2023-02-15T07:09:42;101921.34;;;2.61;97.08
12868;BME280;33517;49.866;8.320;2023-02-15T07:12:34;101921.41;;;2.77;96.66
12868;BME280;33517;49.866;8.320;2023-02-15T07:15:36;101925.53;;;2.81;96.62
12868;BME280;33517;49.866;8.320;2023-02-15T07:18:28;101926.59;;;2.94;96.62
12868;BME280;33517;49.866;8.320;2023-02-15T07:21:19;101933.53;;;2.94;95.50
12868;BME280;33517;49.866;8.320;2023-02-15T07:24:13;101919.47;;;2.98;95.70
12868;BME280;33517;49.866;8.320;2023-02-15T07:27:06;101931.16;;;3.06;96.05
12868;BME280;33517;49.866;8.320;2023-02-15T07:29:58;101929.16;;;3.11;95.90
12868;BME280;33517;49.866;8.320;2023-02-15T07:32:50;101926.66;;;2.93;95.55
12868;BME280;33517;49.866;8.320;2023-02-15T07:36:01;101917.81;;;2.62;95.45
12868;BME280;33517;49.866;8.320;2023-02-15T07:38:54;101924.53;;;2.66;96.84
12868;BME280;33517;49.866;8.320;2023-02-15T07:41:47;101923.94;;;2.78;96.56
12868;BME280;33517;49.866;8.320;2023-02-15T07:44:39;101919.28;;;3.01;96.04
12868;BME280;33517;49.866;8.320;2023-02-15T07:47:31;101913.78;;;3.07;95.47
12868;BME280;33517;49.866;8.320;2023-02-15T07:50:22;101911.53;;;3.16;95.52
12868;BME280;33517;49.866;8.320;2023-02-15T07:53:14;101912.03;;;3.07;95.50
12868;BME280;33517;49.866;8.320;2023-02-15T07:56:09;101908.47;;;3.25;95.63
12868;BME280;33517;49.866;8.320;2023-02-15T07:59:03;101918.78;;;3.42;95.35
12868;BME280;33517;49.866;8.320;2023-02-15T08:01:55;101924.84;;;3.10;94.49
12868;BME280;33517;49.866;8.320;2023-02-15T08:04:47;101914.50;;;2.93;95.76
12868;BME280;33517;49.866;8.320;2023-02-15T08:07:40;101910.38;;;2.89;95.83
12868;BME280;33517;49.866;8.320;2023-02-15T08:10:32;101905.56;;;2.81;95.67
12868;BME280;33517;49.866;8.320;2023-02-15T08:13:42;101911.72;;;2.46;96.61
12868;BME280;33517;49.866;8.320;2023-02-15T08:16:46;101912.41;;;2.50;97.95
12868;BME280;33517;49.866;8.320;2023-02-15T08:19:38;101907.06;;;2.53;98.85
12868;BME280;33517;49.866;8.320;2023-02-15T08:22:30;101907.19;;;2.84;98.22
12868;BME280;33517;49.866;8.320;2023-02-15T08:25:22;101905.53;;;2.99;97.44
12868;BME280;33517;49.866;8.320;2023-02-15T08:28:14;101900.53;;;3.11;97.05
12868;BME280;33517;49.866;8.320;2023-02-15T08:31:06;101893.50;;;3.13;96.55
12868;BME280;33517;49.866;8.320;2023-02-15T08:34:00;101890.50;;;3.21;96.74
12868;BME280;33517;49.866;8.320;2023-02-15T08:36:51;101894.25;;;3.15;96.00
12868;BME280;33517;49.866;8.320;2023-02-15T08:39:43;101890.69;;;2.85;96.80
12868;BME280;33517;49.866;8.320;2023-02-15T08:42:36;101889.28;;;3.11;97.43
12868;BME280;33517;49.866;8.320;2023-02-15T08:45:28;101880.19;;;3.35;96.02
12868;BME280;33517;49.866;8.320;2023-02-15T08:48:20;101882.44;;;3.56;95.45
12868;BME280;33517;49.866;8.320;2023-02-15T08:51:15;101880.16;;;3.66;94.83
12868;BME280;33517;49.866;8.320;2023-02-15T08:54:08;101880.94;;;3.52;94.49
12868;BME280;33517;49.866;8.320;2023-02-15T08:57:01;101878.41;;;3.35;94.21
12868;BME280;33517;49.866;8.320;2023-02-15T08:59:52;101876.06;;;3.31;95.39
12868;BME280;33517;49.866;8.320;2023-02-15T09:02:45;101875.31;;;3.29;95.24
12868;BME280;33517;49.866;8.320;2023-02-15T09:05:37;101870.94;;;3.45;95.24
12868;BME280;33517;49.866;8.320;2023-02-15T09:08:30;101855.75;;;3.22;94.68
12868;BME280;33517;49.866;8.320;2023-02-15T09:11:24;101866.22;;;3.20;95.69
12868;BME280;33517;49.866;8.320;2023-02-15T09:14:18;101859.50;;;3.16;96.54
12868;BME280;33517;49.866;8.320;2023-02-15T09:17:10;101856.69;;;3.36;96.14
12868;BME280;33517;49.866;8.320;2023-02-15T09:20:03;101844.47;;;3.68;95.59
12868;BME280;33517;49.866;8.320;2023-02-15T09:22:55;101853.88;;;3.86;94.20
12868;BME280;33517;49.866;8.320;2023-02-15T09:25:48;101854.09;;;3.97;93.47
12868;BME280;33517;49.866;8.320;2023-02-15T09:28:40;101841.94;;;3.82;93.47
12868;BME280;33517;49.866;8.320;2023-02-15T09:31:33;101850.13;;;3.45;93.64
12868;BME280;33517;49.866;8.320;2023-02-15T09:34:28;101848.38;;;3.61;94.40
12868;BME280;33517;49.866;8.320;2023-02-15T09:37:21;101840.94;;;3.85;93.58
12868;BME280;33517;49.866;8.320;2023-02-15T09:40:15;101844.25;;;4.02;93.49
12868;BME280;33517;49.866;8.320;2023-02-15T09:43:23;101842.81;;;3.67;93.37
12868;BME280;33517;49.866;8.320;2023-02-15T09:46:29;101857.59;;;3.51;94.37
12868;BME280;33517;49.866;8.320;2023-02-15T09:49:32;101866.38;;;3.80;94.55
12868;BME280;33517;49.866;8.320;2023-02-15T09:52:45;101857.41;;;3.69;94.85
12868;BME280;33517;49.866;8.320;2023-02-15T09:55:50;101865.59;;;3.93;94.39
12868;BME280;33517;49.866;8.320;2023-02-15T09:58:53;101866.88;;;3.86;93.82
12868;BME280;33517;49.866;8.320;2023-02-15T10:01:55;101871.22;;;3.56;94.22
12868;BME280;33517;49.866;8.320;2023-02-15T10:05:02;101888.31;;;3.60;95.26
12868;BME280;33517;49.866;8.320;2023-02-15T10:11:58;101872.69;;;3.60;95.49
12868;BME280;33517;49.866;8.320;2023-02-15T10:15:04;101874.34;;;3.92;94.99
12868;BME280;33517;49.866;8.320;2023-02-15T10:18:10;101867.72;;;4.16;93.75
12868;BME280;33517;49.866;8.320;2023-02-15T10:21:12;101872.88;;;4.02;93.27
12868;BME280;33517;49.866;8.320;2023-02-15T10:24:22;101874.50;;;3.89;93.92
12868;BME280;33517;49.866;8.320;2023-02-15T10:27:19;101873.03;;;4.15;93.56
12868;BME280;33517;49.866;8.320;2023-02-15T10:30:13;101881.81;;;4.28;93.69
12868;BME280;33517;49.866;8.320;2023-02-15T10:33:12;101880.06;;;4.42;92.63
12868;BME280;33517;49.866;8.320;2023-02-15T10:36:20;101879.31;;;4.40;92.51
12868;BME280;33517;49.866;8.320;2023-02-15T10:39:23;101885.59;;;4.52;92.11
12868;BME280;33517;49.866;8.320;2023-02-15T10:42:26;101877.00;;;4.50;92.76
12868;BME280;33517;49.866;8.320;2023-02-15T10:45:28;101876.16;;;4.35;92.99
12868;BME280;33517;49.866;8.320;2023-02-15T10:51:56;101856.78;;;4.25;93.09
12868;BME280;33517;49.866;8.320;2023-02-15T10:55:00;101851.75;;;4.22;93.73
12868;BME280;33517;49.866;8.320;2023-02-15T10:58:00;101858.78;;;4.50;93.56
12868;BME280;33517;49.866;8.320;2023-02-15T11:01:04;101854.56;;;4.33;92.52
12868;BME280;33517;49.866;8.320;2023-02-15T11:04:10;101847.50;;;3.76;93.27
12868;BME280;33517;49.866;8.320;2023-02-15T11:07:12;101850.88;;;3.47;94.78
12868;BME280;33517;49.866;8.320;2023-02-15T11:10:18;101852.66;;;3.46;96.99
12868;BME280;33517;49.866;8.320;2023-02-15T11:13:16;101846.97;;;3.85;97.29
12868;BME280;33517;49.866;8.320;2023-02-15T11:16:14;101847.47;;;4.21;96.01
12868;BME280;33517;49.866;8.320;2023-02-15T11:19:11;101845.38;;;4.56;94.98
12868;BME280;33517;49.866;8.320;2023-02-15T11:22:06;101843.25;;;4.62;94.18
12868;BME280;33517;49.866;8.320;2023-02-15T11:25:00;101832.06;;;4.46;93.07
12868;BME280;33517;49.866;8.320;2023-02-15T11:27:54;101839.59;;;4.37;92.96
12868;BME280;33517;49.866;8.320;2023-02-15T11:30:49;101833.63;;;4.35;93.21
12868;BME280;33517;49.866;8.320;2023-02-15T11:33:47;101826.66;;;4.63;93.04
12868;BME280;33517;49.866;8.320;2023-02-15T11:36:41;101834.13;;;4.41;91.98
12868;BME280;33517;49.866;8.320;2023-02-15T11:39:35;101827.22;;;4.54;92.42
12868;BME280;33517;49.866;8.320;2023-02-15T11:42:29;101826.66;;;4.35;91.90
12868;BME280;33517;49.866;8.320;2023-02-15T11:45:26;101825.19;;;4.45;92.29
12868;BME280;33517;49.866;8.320;2023-02-15T11:48:19;101820.03;;;4.30;91.86
12868;BME280;33517;49.866;8.320;2023-02-15T11:51:14;101815.56;;;4.46;92.72
12868;BME280;33517;49.866;8.320;2023-02-15T11:54:08;101806.00;;;4.60;91.69
12868;BME280;33517;49.866;8.320;2023-02-15T11:57:05;101805.91;;;4.34;92.12
12868;BME280;33517;49.866;8.320;2023-02-15T12:00:09;101808.22;;;4.24;91.49
12868;BME280;33517;49.866;8.320;2023-02-15T12:03:09;101799.91;;;4.04;92.25
12868;BME280;33517;49.866;8.320;2023-02-15T12:06:05;101798.66;;;3.95;92.78
12868;BME280;33517;49.866;8.320;2023-02-15T12:09:06;101796.69;;;3.85;93.38
12868;BME280;33517;49.866;8.320;2023-02-15T12:12:23;101788.13;;;3.83;93.87
12868;BME280;33517;49.866;8.320;2023-02-15T12:15:29;101787.09;;;4.15;93.78
12868;BME280;33517;49.866;8.320;2023-02-15T12:18:41;101786.63;;;4.50;92.91
12868;BME280;33517;49.866;8.320;2023-02-15T12:21:39;101778.00;;;4.64;91.14
12868;BME280;33517;49.866;8.320;2023-02-15T12:24:36;101778.34;;;4.58;90.14
12868;BME280;33517;49.866;8.320;2023-02-15T12:27:30;101786.19;;;4.58;90.75
12868;BME280;33517;49.866;8.320;2023-02-15T12:30:29;101779.38;;;4.27;90.90
12868;BME280;33517;49.866;8.320;2023-02-15T12:33:27;101785.50;;;4.40;91.15
12868;BME280;33517;49.866;8.320;2023-02-15T12:36:22;101771.09;;;4.77;90.58
12868;BME280;33517;49.866;8.320;2023-02-15T12:39:20;101768.53;;;5.04;89.51
12868;BME280;33517;49.866;8.320;2023-02-15T12:42:16;101764.50;;;5.12;88.66
12868;BME280;33517;49.866;8.320;2023-02-15T12:45:21;101764.91;;;4.92;88.02
12868;BME280;33517;49.866;8.320;2023-02-15T12:48:16;101759.53;;;4.81;88.46
12868;BME280;33517;49.866;8.320;2023-02-15T12:51:11;101749.59;;;4.74;88.18
12868;BME280;33517;49.866;8.320;2023-02-15T12:54:16;101750.06;;;4.38;89.24
12868;BME280;33517;49.866;8.320;2023-02-15T12:57:24;101747.91;;;4.44;90.14
12868;BME280;33517;49.866;8.320;2023-02-15T13:00:29;101747.66;;;4.49;90.30
12868;BME280;33517;49.866;8.320;2023-02-15T13:03:23;101748.09;;;4.13;90.59
12868;BME280;33517;49.866;8.320;2023-02-15T13:06:17;101739.03;;;3.91;92.25
12868;BME280;33517;49.866;8.320;2023-02-15T13:09:14;101739.91;;;4.05;93.10
12868;BME280;33517;49.866;8.320;2023-02-15T13:12:15;101736.66;;;4.16;92.52
12868;BME280;33517;49.866;8.320;2023-02-15T13:15:24;101722.97;;;4.54;92.13
12868;BME280;33517;49.866;8.320;2023-02-15T13:18:23;101719.66;;;4.93;90.96
12868;BME280;33517;49.866;8.320;2023-02-15T13:21:19;101717.03;;;4.52;89.90
12868;BME280;33517;49.866;8.320;2023-02-15T13:24:17;101719.06;;;4.19;90.55
12868;BME280;33517;49.866;8.320;2023-02-15T13:27:13;101717.31;;;4.06;90.93
12868;BME280;33517;49.866;8.320;2023-02-15T13:30:19;101715.22;;;3.97;92.14
12868;BME280;33517;49.866;8.320;2023-02-15T13:33:16;101708.09;;;4.42;92.25
12868;BME280;33517;49.866;8.320;2023-02-15T13:36:15;101704.50;;;4.72;91.53
12868;BME280;33517;49.866;8.320;2023-02-15T13:39:17;101691.84;;;5.06;90.04
12868;BME280;33517;49.866;8.320;2023-02-15T13:42:18;101696.22;;;4.79;88.53
12868;BME280;33517;49.866;8.320;2023-02-15T13:45:28;101690.38;;;5.02;88.58
12868;BME280;33517;49.866;8.320;2023-02-15T13:48:31;101692.25;;;5.00;87.35
12868;BME280;33517;49.866;8.320;2023-02-15T13:51:32;101689.78;;;5.11;86.77
12868;BME280;33517;49.866;8.320;2023-02-15T13:54:49;101688.50;;;4.63;86.82
12868;BME280;33517;49.866;8.320;2023-02-15T13:58:02;101683.03;;;4.54;88.43
12868;BME280;33517;49.866;8.320;2023-02-15T14:01:08;101683.06;;;4.26;88.94
12868;BME280;33517;49.866;8.320;2023-02-15T14:07:34;101691.06;;;4.51;90.03
12868;BME280;33517;49.866;8.320;2023-02-15T14:10:42;101683.38;;;4.76;89.61
12868;BME280;33517;49.866;8.320;2023-02-15T14:13:59;101675.41;;;4.51;88.87
12868;BME280;33517;49.866;8.320;2023-02-15T14:17:04;101682.31;;;4.38;89.31
12868;BME280;33517;49.866;8.320;2023-02-15T14:20:04;101677.81;;;4.68;89.76
12868;BME280;33517;49.866;8.320;2023-02-15T14:23:05;101679.78;;;4.91;88.83
12868;BME280;33517;49.866;8.320;2023-02-15T14:26:06;101676.97;;;5.21;88.60
12868;BME280;33517;49.866;8.320;2023-02-15T14:29:07;101679.69;;;5.19;87.71
12868;BME280;33517;49.866;8.320;2023-02-15T14:32:09;101673.31;;;5.11;87.25
12868;BME280;33517;49.866;8.320;2023-02-15T14:35:03;101673.84;;;5.28;86.78
12868;BME280;33517;49.866;8.320;2023-02-15T14:38:02;101663.75;;;5.24;86.25
12868;BME280;33517;49.866;8.320;2023-02-15T14:41:01;101670.78;;;5.09;86.93
12868;BME280;33517;49.866;8.320;2023-02-15T14:44:00;101674.13;;;5.11;87.19
12868;BME280;33517;49.866;8.320;2023-02-15T14:46:57;101665.28;;;5.14;86.83
12868;BME280;33517;49.866;8.320;2023-02-15T14:49:51;101664.16;;;4.91;86.96
12868;BME280;33517;49.866;8.320;2023-02-15T14:56:25;101670.69;;;4.29;89.35
12868;BME280;33517;49.866;8.320;2023-02-15T14:59:19;101672.00;;;4.22;90.86
12868;BME280;33517;49.866;8.320;2023-02-15T15:02:13;101655.22;;;4.54;90.23
12868;BME280;33517;49.866;8.320;2023-02-15T15:05:14;101658.78;;;4.80;89.49
12868;BME280;33517;49.866;8.320;2023-02-15T15:08:22;101653.66;;;4.79;89.17
12868;BME280;33517;49.866;8.320;2023-02-15T15:11:41;101657.06;;;4.93;88.30
12868;BME280;33517;49.866;8.320;2023-02-15T15:14:39;101651.88;;;4.79;87.98
12868;BME280;33517;49.866;8.320;2023-02-15T15:17:57;101653.56;;;4.80;87.96
12868;BME280;33517;49.866;8.320;2023-02-15T15:20:51;101652.00;;;4.63;88.49
12868;BME280;33517;49.866;8.320;2023-02-15T15:23:43;101652.66;;;4.67;88.87
12868;BME280;33517;49.866;8.320;2023-02-15T15:26:35;101652.91;;;4.36;89.34
12868;BME280;33517;49.866;8.320;2023-02-15T15:29:39;101666.06;;;4.20;90.55
12868;BME280;33517;49.866;8.320;2023-02-15T15:32:32;101665.28;;;3.76;92.11
12868;BME280;33517;49.866;8.320;2023-02-15T15:35:29;101661.97;;;3.88;93.17
12868;BME280;33517;49.866;8.320;2023-02-15T15:38:38;101658.69;;;4.27;92.89
12868;BME280;33517;49.866;8.320;2023-02-15T15:41:40;101656.53;;;4.19;91.87
12868;BME280;33517;49.866;8.320;2023-02-15T15:45:02;101657.13;;;4.24;91.94
12868;BME280;33517;49.866;8.320;2023-02-15T15:48:15;101665.00;;;3.95;93.12
12868;BME280;33517;49.866;8.320;2023-02-15T15:51:17;101670.41;;;3.92;93.42
12868;BME280;33517;49.866;8.320;2023-02-15T15:54:15;101664.66;;;4.15;92.45